Riverside, Iowa
Current Conditions -  °F | °C
As of 6:52 PM on Wednesday 22 Oct 2014 (Local Time) from KIOW Reporting Station
Clear Clear  
Wind Chill: 52°   Ceiling: Unl
Heat Index: 52°   Visibility: 10mi
Dew Point: 39°   Wind: 7mph
Humidity: 61%   Direction: 130°SE
Pressure: 30.21"   Gusts: NA
Location:  41.48°N, 91.58°W
Report Text: KIOW 222352Z AUTO 13006KT 10SM CLR 11/04 A3021 RMK AO2 SLP233 T01110039 10156 20111 55005
Loading
Personal Weather Stations






























Interactive Weather Map
Tropical Storm Tracking
New forecast layout! Learn more

10-Day Weather Forecast

Advertisements
Track Severe Weather on mobile